Other Surface Observations
Issued by NWS Great Falls, MT

Home | Current Version | Previous Version | Text Only | Print | Product List | Glossary On
Versions: 1 2 3 4 5 6 7 8 9 10 11 12 13 14 15 16 17 18 19 20 21 22 23 24 25 26 27 28 29 30 31 32 33 34 35 36 37 38 39 40 41 42 43 44 45 46 47 48 49 50
688
SXUS55 KTFX 120944
OSOTFX
AREA AWOS OBSERVATIONS
NATIONAL WEATHER SERVICE GREAT FALLS MT
0244 AM MST FRI FEB 12 2016

METAR KPWD 120945Z AUTO 02011KT 10SM M13/M17 A3043 RMK PLENTYWOOD
METAR KPO1 120945Z AUTO 05011KT 10SM M08/M12 A3044 RMK POPLAR
METAR K1S3 120945Z AUTO 00000KT 10SM 01/M01 A3033 RMK FORSYTH
METAR KS71 120945Z AUTO 00000KT 6SM M01/M01 A3032 RMK CHINOOK
METAR K38S 120945Z AUTO 00000KT 9SM 03/01 A3027 RMK DEER LODGE
METAR K3U3 120945Z AUTO 00000KT 10SM 03/02 A3025 RMK ANACONDA
METAR K6S5 120945Z AUTO 00000KT 10SM 04/03 A3025 RMK HAMILTON



USA.gov is the U.S. government's official web portal to all federal, state and local government web resources and services.